sensor_id;sensor_type;location;lat;lon;timestamp;pressure;altitude;pressure_sealevel;temperature;humidity
76815;BME280;65768;49.906;19.384;2023-07-31T00:01:23;97834.56;;;20.69;68.65
76815;BME280;65768;49.906;19.384;2023-07-31T00:03:51;97838.08;;;20.73;68.62
76815;BME280;65768;49.906;19.384;2023-07-31T00:06:20;97842.33;;;20.69;68.88
76815;BME280;65768;49.906;19.384;2023-07-31T00:08:51;97843.39;;;20.50;69.73
76815;BME280;65768;49.906;19.384;2023-07-31T00:11:21;97848.33;;;20.54;69.88
76815;BME280;65768;49.906;19.384;2023-07-31T00:13:53;97845.29;;;20.59;69.63
76815;BME280;65768;49.906;19.384;2023-07-31T00:16:22;97850.10;;;20.62;69.59
76815;BME280;65768;49.906;19.384;2023-07-31T00:18:52;97849.38;;;20.58;70.01
76815;BME280;65768;49.906;19.384;2023-07-31T00:21:21;97851.55;;;20.65;69.61
76815;BME280;65768;49.906;19.384;2023-07-31T00:23:49;97854.02;;;20.61;69.76
76815;BME280;65768;49.906;19.384;2023-07-31T00:26:20;97854.94;;;20.61;69.83
76815;BME280;65768;49.906;19.384;2023-07-31T00:28:49;97848.93;;;20.56;70.17
76815;BME280;65768;49.906;19.384;2023-07-31T00:31:19;97852.85;;;20.52;70.30
76815;BME280;65768;49.906;19.384;2023-07-31T00:33:53;97862.39;;;20.40;71.08
76815;BME280;65768;49.906;19.384;2023-07-31T00:36:23;97858.55;;;20.55;70.61
76815;BME280;65768;49.906;19.384;2023-07-31T00:38:52;97863.58;;;20.45;70.94
76815;BME280;65768;49.906;19.384;2023-07-31T00:41:22;97865.34;;;20.50;70.89
76815;BME280;65768;49.906;19.384;2023-07-31T00:43:50;97870.70;;;20.52;70.86
76815;BME280;65768;49.906;19.384;2023-07-31T00:46:20;97870.17;;;20.64;70.61
76815;BME280;65768;49.906;19.384;2023-07-31T00:48:50;97870.33;;;20.49;71.11
76815;BME280;65768;49.906;19.384;2023-07-31T00:51:19;97860.45;;;20.52;70.93
76815;BME280;65768;49.906;19.384;2023-07-31T00:53:48;97860.26;;;20.68;70.66
76815;BME280;65768;49.906;19.384;2023-07-31T00:56:20;97864.30;;;20.73;70.26
76815;BME280;65768;49.906;19.384;2023-07-31T00:58:52;97860.61;;;20.64;70.49
76815;BME280;65768;49.906;19.384;2023-07-31T01:01:22;97858.05;;;20.67;70.49
76815;BME280;65768;49.906;19.384;2023-07-31T01:03:52;97861.64;;;20.73;70.38
76815;BME280;65768;49.906;19.384;2023-07-31T01:06:28;97862.66;;;20.66;70.58
76815;BME280;65768;49.906;19.384;2023-07-31T01:09:11;97865.77;;;20.52;71.05
76815;BME280;65768;49.906;19.384;2023-07-31T01:12:00;97862.28;;;20.50;71.33
76815;BME280;65768;49.906;19.384;2023-07-31T01:14:30;97865.47;;;20.50;71.21
76815;BME280;65768;49.906;19.384;2023-07-31T01:16:59;97869.99;;;20.56;71.13
76815;BME280;65768;49.906;19.384;2023-07-31T01:19:28;97874.66;;;20.59;70.79
76815;BME280;65768;49.906;19.384;2023-07-31T01:28:00;97873.75;;;20.51;70.94
76815;BME280;65768;49.906;19.384;2023-07-31T01:30:37;97879.08;;;20.35;71.41
76815;BME280;65768;49.906;19.384;2023-07-31T01:33:10;97880.36;;;20.34;71.54
76815;BME280;65768;49.906;19.384;2023-07-31T01:35:39;97880.05;;;20.33;71.70
76815;BME280;65768;49.906;19.384;2023-07-31T01:38:09;97876.65;;;20.30;71.61
76815;BME280;65768;49.906;19.384;2023-07-31T01:40:41;97881.52;;;20.36;71.71
76815;BME280;65768;49.906;19.384;2023-07-31T01:43:10;97881.76;;;20.35;71.48
76815;BME280;65768;49.906;19.384;2023-07-31T01:45:40;97881.77;;;20.38;71.52
76815;BME280;65768;49.906;19.384;2023-07-31T01:48:09;97881.14;;;20.36;71.55
76815;BME280;65768;49.906;19.384;2023-07-31T01:50:38;97885.80;;;20.23;71.89
76815;BME280;65768;49.906;19.384;2023-07-31T01:53:07;97885.02;;;20.37;71.70
76815;BME280;65768;49.906;19.384;2023-07-31T01:55:37;97884.13;;;20.21;71.91
76815;BME280;65768;49.906;19.384;2023-07-31T01:58:06;97892.08;;;20.30;72.01
76815;BME280;65768;49.906;19.384;2023-07-31T02:00:44;97892.80;;;20.21;72.22
76815;BME280;65768;49.906;19.384;2023-07-31T02:03:13;97895.39;;;20.15;72.52
76815;BME280;65768;49.906;19.384;2023-07-31T02:05:46;97898.36;;;20.07;72.69
76815;BME280;65768;49.906;19.384;2023-07-31T02:08:18;97906.81;;;19.91;73.28
76815;BME280;65768;49.906;19.384;2023-07-31T02:10:48;97907.96;;;20.01;73.11
76815;BME280;65768;49.906;19.384;2023-07-31T02:13:17;97908.54;;;19.84;73.60
76815;BME280;65768;49.906;19.384;2023-07-31T02:15:46;97911.98;;;19.90;73.59
76815;BME280;65768;49.906;19.384;2023-07-31T02:18:16;97915.25;;;19.76;74.04
76815;BME280;65768;49.906;19.384;2023-07-31T02:20:52;97921.16;;;19.83;74.24
76815;BME280;65768;49.906;19.384;2023-07-31T02:23:21;97924.65;;;19.88;73.31
76815;BME280;65768;49.906;19.384;2023-07-31T02:25:50;97927.39;;;19.73;73.54
76815;BME280;65768;49.906;19.384;2023-07-31T02:28:19;97932.51;;;19.64;73.72
76815;BME280;65768;49.906;19.384;2023-07-31T02:30:50;97934.70;;;19.88;72.69
76815;BME280;65768;49.906;19.384;2023-07-31T02:33:19;97938.88;;;19.82;72.57
76815;BME280;65768;49.906;19.384;2023-07-31T02:35:48;97943.60;;;19.87;72.09
76815;BME280;65768;49.906;19.384;2023-07-31T02:38:17;97949.43;;;19.92;72.16
76815;BME280;65768;49.906;19.384;2023-07-31T02:40:46;97946.23;;;19.80;71.99
76815;BME280;65768;49.906;19.384;2023-07-31T02:43:16;97949.46;;;19.78;72.08
76815;BME280;65768;49.906;19.384;2023-07-31T02:45:45;97953.77;;;19.85;71.71
76815;BME280;65768;49.906;19.384;2023-07-31T02:48:15;97949.79;;;19.83;71.88
76815;BME280;65768;49.906;19.384;2023-07-31T02:50:45;97949.11;;;19.74;71.74
76815;BME280;65768;49.906;19.384;2023-07-31T02:53:13;97950.55;;;19.60;72.31
76815;BME280;65768;49.906;19.384;2023-07-31T02:55:42;97951.48;;;19.45;72.13
76815;BME280;65768;49.906;19.384;2023-07-31T02:58:11;97947.88;;;19.51;71.74
76815;BME280;65768;49.906;19.384;2023-07-31T03:00:45;97953.63;;;19.53;71.41
76815;BME280;65768;49.906;19.384;2023-07-31T03:03:14;97957.40;;;19.47;71.50
76815;BME280;65768;49.906;19.384;2023-07-31T03:05:43;97958.44;;;19.44;71.11
76815;BME280;65768;49.906;19.384;2023-07-31T03:08:12;97950.71;;;19.56;70.74
76815;BME280;65768;49.906;19.384;2023-07-31T03:10:43;97946.10;;;19.56;70.13
76815;BME280;65768;49.906;19.384;2023-07-31T03:13:13;97949.92;;;19.40;70.66
76815;BME280;65768;49.906;19.384;2023-07-31T03:15:43;97949.68;;;19.55;70.02
76815;BME280;65768;49.906;19.384;2023-07-31T03:18:15;97949.06;;;19.43;69.77
76815;BME280;65768;49.906;19.384;2023-07-31T03:20:46;97955.14;;;19.65;69.35
76815;BME280;65768;49.906;19.384;2023-07-31T03:23:18;97939.86;;;19.48;69.33
76815;BME280;65768;49.906;19.384;2023-07-31T03:26:01;97956.60;;;19.77;69.24
76815;BME280;65768;49.906;19.384;2023-07-31T03:28:31;97958.68;;;19.78;69.13
76815;BME280;65768;49.906;19.384;2023-07-31T03:31:04;97955.56;;;19.58;69.21
76815;BME280;65768;49.906;19.384;2023-07-31T03:33:39;97953.90;;;19.78;69.03
76815;BME280;65768;49.906;19.384;2023-07-31T03:36:07;97960.01;;;19.67;69.38
76815;BME280;65768;49.906;19.384;2023-07-31T03:38:36;97959.27;;;19.63;69.47
76815;BME280;65768;49.906;19.384;2023-07-31T03:41:04;97959.36;;;19.56;69.63
76815;BME280;65768;49.906;19.384;2023-07-31T03:43:35;97964.23;;;19.67;69.71
76815;BME280;65768;49.906;19.384;2023-07-31T03:46:05;97965.15;;;19.61;69.59
76815;BME280;65768;49.906;19.384;2023-07-31T03:48:33;97963.27;;;19.37;70.18
76815;BME280;65768;49.906;19.384;2023-07-31T03:51:02;97969.96;;;19.38;70.02
76815;BME280;65768;49.906;19.384;2023-07-31T03:53:33;97972.38;;;19.44;70.03
76815;BME280;65768;49.906;19.384;2023-07-31T03:56:02;97973.64;;;19.44;69.95
76815;BME280;65768;49.906;19.384;2023-07-31T03:58:31;97970.00;;;19.69;69.48
76815;BME280;65768;49.906;19.384;2023-07-31T04:01:00;97969.15;;;19.94;68.49
76815;BME280;65768;49.906;19.384;2023-07-31T04:03:29;97966.77;;;19.83;68.55
76815;BME280;65768;49.906;19.384;2023-07-31T04:06:05;97971.58;;;19.87;68.85
76815;BME280;65768;49.906;19.384;2023-07-31T04:08:36;97971.70;;;19.66;68.27
76815;BME280;65768;49.906;19.384;2023-07-31T04:11:05;97974.71;;;19.66;68.31
76815;BME280;65768;49.906;19.384;2023-07-31T04:13:35;97974.04;;;19.42;68.58
76815;BME280;65768;49.906;19.384;2023-07-31T04:16:05;97973.59;;;19.54;68.67
76815;BME280;65768;49.906;19.384;2023-07-31T04:18:34;97976.36;;;19.73;68.14
76815;BME280;65768;49.906;19.384;2023-07-31T04:21:03;97977.05;;;19.65;68.14
76815;BME280;65768;49.906;19.384;2023-07-31T04:23:32;97977.29;;;19.31;68.63
76815;BME280;65768;49.906;19.384;2023-07-31T04:26:01;97983.83;;;19.68;67.35
76815;BME280;65768;49.906;19.384;2023-07-31T04:28:30;97984.17;;;19.18;68.61
76815;BME280;65768;49.906;19.384;2023-07-31T04:31:01;97984.35;;;19.27;68.52
76815;BME280;65768;49.906;19.384;2023-07-31T04:33:30;97987.39;;;19.35;68.50
76815;BME280;65768;49.906;19.384;2023-07-31T04:36:01;97981.82;;;19.33;68.72
76815;BME280;65768;49.906;19.384;2023-07-31T04:38:30;97981.84;;;19.46;68.53
76815;BME280;65768;49.906;19.384;2023-07-31T04:40:59;97991.79;;;19.17;68.86
76815;BME280;65768;49.906;19.384;2023-07-31T04:43:28;97997.27;;;19.04;69.48
76815;BME280;65768;49.906;19.384;2023-07-31T04:45:57;97998.44;;;19.24;69.21
76815;BME280;65768;49.906;19.384;2023-07-31T04:48:26;97999.33;;;19.42;68.90
76815;BME280;65768;49.906;19.384;2023-07-31T04:50:55;98002.34;;;19.23;69.79
76815;BME280;65768;49.906;19.384;2023-07-31T04:53:26;98007.80;;;19.24;70.58
76815;BME280;65768;49.906;19.384;2023-07-31T04:55:55;98008.92;;;19.27;70.78
76815;BME280;65768;49.906;19.384;2023-07-31T04:58:25;98008.79;;;19.12;71.26
76815;BME280;65768;49.906;19.384;2023-07-31T05:00:54;98011.95;;;19.12;71.51
76815;BME280;65768;49.906;19.384;2023-07-31T05:03:23;98010.19;;;19.08;71.62
76815;BME280;65768;49.906;19.384;2023-07-31T05:05:51;98015.80;;;19.09;71.67
76815;BME280;65768;49.906;19.384;2023-07-31T05:08:21;98014.98;;;19.07;71.64
76815;BME280;65768;49.906;19.384;2023-07-31T05:10:53;98019.13;;;19.14;71.56
76815;BME280;65768;49.906;19.384;2023-07-31T05:13:23;98019.91;;;19.17;71.18
76815;BME280;65768;49.906;19.384;2023-07-31T05:15:52;98022.23;;;19.16;71.37
76815;BME280;65768;49.906;19.384;2023-07-31T05:18:21;98022.22;;;19.49;70.67
76815;BME280;65768;49.906;19.384;2023-07-31T05:20:51;98024.23;;;19.52;70.23
76815;BME280;65768;49.906;19.384;2023-07-31T05:23:21;98023.87;;;19.57;69.86
76815;BME280;65768;49.906;19.384;2023-07-31T05:25:50;98024.52;;;19.68;69.74
76815;BME280;65768;49.906;19.384;2023-07-31T05:28:21;98025.98;;;19.84;69.69
76815;BME280;65768;49.906;19.384;2023-07-31T05:30:50;98024.37;;;19.98;69.02
76815;BME280;65768;49.906;19.384;2023-07-31T05:33:18;98023.59;;;20.09;68.45
76815;BME280;65768;49.906;19.384;2023-07-31T05:35:48;98021.10;;;20.18;67.99
76815;BME280;65768;49.906;19.384;2023-07-31T05:38:17;98022.91;;;20.08;67.51
76815;BME280;65768;49.906;19.384;2023-07-31T05:40:47;98021.48;;;20.08;67.23
76815;BME280;65768;49.906;19.384;2023-07-31T05:43:16;98022.20;;;19.68;67.63
76815;BME280;65768;49.906;19.384;2023-07-31T05:45:45;98019.20;;;19.95;66.91
76815;BME280;65768;49.906;19.384;2023-07-31T05:48:14;98015.90;;;19.84;67.15
76815;BME280;65768;49.906;19.384;2023-07-31T05:50:44;98010.95;;;20.23;66.26
76815;BME280;65768;49.906;19.384;2023-07-31T05:53:12;98007.65;;;20.30;65.70
76815;BME280;65768;49.906;19.384;2023-07-31T05:55:41;98012.41;;;20.22;64.90
76815;BME280;65768;49.906;19.384;2023-07-31T05:58:12;98006.52;;;20.44;63.99
76815;BME280;65768;49.906;19.384;2023-07-31T06:00:41;98010.89;;;20.75;63.80
76815;BME280;65768;49.906;19.384;2023-07-31T06:03:12;98015.86;;;20.90;62.18
76815;BME280;65768;49.906;19.384;2023-07-31T06:05:42;98015.08;;;21.00;61.42
76815;BME280;65768;49.906;19.384;2023-07-31T06:08:12;98013.68;;;21.00;60.91
76815;BME280;65768;49.906;19.384;2023-07-31T06:10:42;98021.66;;;21.27;60.82
76815;BME280;65768;49.906;19.384;2023-07-31T06:13:11;98023.92;;;20.84;60.24
76815;BME280;65768;49.906;19.384;2023-07-31T06:15:41;98029.54;;;20.90;60.67
76815;BME280;65768;49.906;19.384;2023-07-31T06:18:10;98026.20;;;21.44;60.25
76815;BME280;65768;49.906;19.384;2023-07-31T06:20:39;98030.83;;;21.48;59.20
76815;BME280;65768;49.906;19.384;2023-07-31T06:23:09;98029.88;;;21.50;58.85
76815;BME280;65768;49.906;19.384;2023-07-31T06:25:39;98030.23;;;21.45;59.10
76815;BME280;65768;49.906;19.384;2023-07-31T06:28:07;98028.53;;;21.52;59.20
76815;BME280;65768;49.906;19.384;2023-07-31T06:30:37;98025.45;;;21.79;58.20
76815;BME280;65768;49.906;19.384;2023-07-31T06:33:06;98022.38;;;21.98;58.23
76815;BME280;65768;49.906;19.384;2023-07-31T06:35:35;98023.63;;;21.80;58.18
76815;BME280;65768;49.906;19.384;2023-07-31T06:38:04;98020.66;;;21.87;57.71
76815;BME280;65768;49.906;19.384;2023-07-31T06:40:32;98020.83;;;21.68;56.81
76815;BME280;65768;49.906;19.384;2023-07-31T06:43:03;98022.59;;;21.46;57.39
76815;BME280;65768;49.906;19.384;2023-07-31T06:45:39;98021.89;;;22.05;56.35
76815;BME280;65768;49.906;19.384;2023-07-31T06:48:09;98019.65;;;22.22;55.81
76815;BME280;65768;49.906;19.384;2023-07-31T06:50:38;98024.21;;;22.34;55.12
76815;BME280;65768;49.906;19.384;2023-07-31T06:53:12;98030.63;;;21.52;56.41
76815;BME280;65768;49.906;19.384;2023-07-31T06:55:43;98030.97;;;21.82;56.88
76815;BME280;65768;49.906;19.384;2023-07-31T06:58:30;98035.23;;;21.68;57.02
76815;BME280;65768;49.906;19.384;2023-07-31T07:00:59;98042.10;;;21.57;57.32
76815;BME280;65768;49.906;19.384;2023-07-31T07:03:28;98036.17;;;21.40;57.18
76815;BME280;65768;49.906;19.384;2023-07-31T07:05:57;98040.41;;;21.32;57.52
76815;BME280;65768;49.906;19.384;2023-07-31T07:08:26;98033.42;;;21.10;57.99
76815;BME280;65768;49.906;19.384;2023-07-31T07:10:56;98044.91;;;21.07;57.57
76815;BME280;65768;49.906;19.384;2023-07-31T07:13:25;98043.68;;;21.57;56.96
76815;BME280;65768;49.906;19.384;2023-07-31T07:15:55;98046.59;;;21.25;56.57
76815;BME280;65768;49.906;19.384;2023-07-31T07:18:25;98046.52;;;21.58;56.41
76815;BME280;65768;49.906;19.384;2023-07-31T07:20:55;98045.36;;;21.67;56.35
76815;BME280;65768;49.906;19.384;2023-07-31T07:23:26;98046.52;;;21.69;55.87
76815;BME280;65768;49.906;19.384;2023-07-31T07:25:55;98046.55;;;21.53;55.59
76815;BME280;65768;49.906;19.384;2023-07-31T07:28:27;98043.84;;;22.03;55.83
76815;BME280;65768;49.906;19.384;2023-07-31T07:30:58;98038.05;;;22.26;54.73
76815;BME280;65768;49.906;19.384;2023-07-31T07:33:27;98040.63;;;22.74;54.72
76815;BME280;65768;49.906;19.384;2023-07-31T07:36:01;98045.57;;;22.96;53.91
76815;BME280;65768;49.906;19.384;2023-07-31T07:38:31;98045.01;;;23.07;54.15
76815;BME280;65768;49.906;19.384;2023-07-31T07:41:00;98044.63;;;23.11;53.73
76815;BME280;65768;49.906;19.384;2023-07-31T07:43:29;98044.04;;;23.15;53.04
76815;BME280;65768;49.906;19.384;2023-07-31T07:45:57;98046.55;;;22.83;53.12
76815;BME280;65768;49.906;19.384;2023-07-31T07:48:26;98041.25;;;23.04;53.57
76815;BME280;65768;49.906;19.384;2023-07-31T07:50:55;98037.55;;;23.13;53.40
76815;BME280;65768;49.906;19.384;2023-07-31T07:53:25;98040.02;;;23.24;53.28
76815;BME280;65768;49.906;19.384;2023-07-31T07:55:54;98038.13;;;23.29;52.50
76815;BME280;65768;49.906;19.384;2023-07-31T07:58:23;98046.57;;;22.97;52.55
76815;BME280;65768;49.906;19.384;2023-07-31T08:00:53;98038.16;;;22.95;52.95
76815;BME280;65768;49.906;19.384;2023-07-31T08:03:22;98039.29;;;22.90;52.48
76815;BME280;65768;49.906;19.384;2023-07-31T08:05:51;98039.95;;;22.95;53.40
76815;BME280;65768;49.906;19.384;2023-07-31T08:08:20;98039.48;;;22.86;53.37
76815;BME280;65768;49.906;19.384;2023-07-31T08:10:49;98039.36;;;22.92;52.99
76815;BME280;65768;49.906;19.384;2023-07-31T08:13:21;98042.52;;;22.58;54.33
76815;BME280;65768;49.906;19.384;2023-07-31T08:15:51;98043.73;;;22.55;54.40
76815;BME280;65768;49.906;19.384;2023-07-31T08:18:20;98045.21;;;22.68;54.82
76815;BME280;65768;49.906;19.384;2023-07-31T08:20:48;98047.79;;;22.77;54.56
76815;BME280;65768;49.906;19.384;2023-07-31T08:23:21;98048.23;;;22.96;53.13
76815;BME280;65768;49.906;19.384;2023-07-31T08:25:51;98052.33;;;22.79;53.22
76815;BME280;65768;49.906;19.384;2023-07-31T08:28:21;98050.31;;;22.72;53.82
76815;BME280;65768;49.906;19.384;2023-07-31T08:30:50;98049.55;;;22.81;54.52
76815;BME280;65768;49.906;19.384;2023-07-31T08:33:20;98046.45;;;22.89;53.62
76815;BME280;65768;49.906;19.384;2023-07-31T08:35:49;98043.27;;;23.36;52.35
76815;BME280;65768;49.906;19.384;2023-07-31T08:38:18;98046.87;;;23.81;51.96
76815;BME280;65768;49.906;19.384;2023-07-31T08:40:46;98052.36;;;23.65;50.06
76815;BME280;65768;49.906;19.384;2023-07-31T08:43:16;98046.05;;;23.53;50.12
76815;BME280;65768;49.906;19.384;2023-07-31T08:45:47;98048.92;;;23.86;51.66
76815;BME280;65768;49.906;19.384;2023-07-31T08:48:17;98050.81;;;23.64;50.30
76815;BME280;65768;49.906;19.384;2023-07-31T08:50:47;98052.05;;;23.90;49.07
76815;BME280;65768;49.906;19.384;2023-07-31T08:53:17;98050.05;;;23.81;49.46
76815;BME280;65768;49.906;19.384;2023-07-31T08:55:47;98045.35;;;24.20;49.09
76815;BME280;65768;49.906;19.384;2023-07-31T08:58:18;98042.68;;;23.79;48.97
76815;BME280;65768;49.906;19.384;2023-07-31T09:00:49;98038.95;;;24.23;47.56
76815;BME280;65768;49.906;19.384;2023-07-31T09:03:20;98033.55;;;24.85;46.93
76815;BME280;65768;49.906;19.384;2023-07-31T09:05:51;98031.70;;;25.41;45.07
76815;BME280;65768;49.906;19.384;2023-07-31T09:08:21;98031.95;;;25.88;44.84
76815;BME280;65768;49.906;19.384;2023-07-31T09:10:51;98027.22;;;25.92;43.40
76815;BME280;65768;49.906;19.384;2023-07-31T09:13:20;98027.40;;;25.47;43.12
76815;BME280;65768;49.906;19.384;2023-07-31T09:15:50;98025.17;;;26.26;43.35
76815;BME280;65768;49.906;19.384;2023-07-31T09:18:20;98024.59;;;26.67;42.07
76815;BME280;65768;49.906;19.384;2023-07-31T09:21:05;98027.51;;;26.82;40.83
76815;BME280;65768;49.906;19.384;2023-07-31T09:23:47;98019.31;;;26.17;42.32
76815;BME280;65768;49.906;19.384;2023-07-31T09:26:32;98021.03;;;25.77;42.14
76815;BME280;65768;49.906;19.384;2023-07-31T09:29:18;98014.30;;;26.50;41.54
76815;BME280;65768;49.906;19.384;2023-07-31T09:31:47;98014.94;;;26.35;42.67
76815;BME280;65768;49.906;19.384;2023-07-31T09:34:16;98005.17;;;26.42;42.75
76815;BME280;65768;49.906;19.384;2023-07-31T09:36:50;98009.73;;;25.80;42.17
76815;BME280;65768;49.906;19.384;2023-07-31T09:39:19;98004.58;;;25.41;43.63
76815;BME280;65768;49.906;19.384;2023-07-31T09:41:56;98008.39;;;25.11;44.77
76815;BME280;65768;49.906;19.384;2023-07-31T09:44:41;98004.83;;;25.51;43.50
76815;BME280;65768;49.906;19.384;2023-07-31T09:47:23;98000.95;;;26.03;42.50
76815;BME280;65768;49.906;19.384;2023-07-31T09:49:54;98000.91;;;26.44;42.56
76815;BME280;65768;49.906;19.384;2023-07-31T09:52:26;98000.20;;;26.23;42.03
76815;BME280;65768;49.906;19.384;2023-07-31T09:54:55;98002.73;;;25.28;42.63
76815;BME280;65768;49.906;19.384;2023-07-31T09:57:24;97997.16;;;25.76;42.23
76815;BME280;65768;49.906;19.384;2023-07-31T09:59:54;97997.48;;;26.47;40.95
76815;BME280;65768;49.906;19.384;2023-07-31T10:02:25;97986.66;;;27.03;40.89
76815;BME280;65768;49.906;19.384;2023-07-31T10:04:57;97976.77;;;27.72;40.71
76815;BME280;65768;49.906;19.384;2023-07-31T10:07:31;97978.30;;;27.70;39.33
76815;BME280;65768;49.906;19.384;2023-07-31T10:10:04;97975.39;;;27.81;39.63
76815;BME280;65768;49.906;19.384;2023-07-31T10:12:33;97977.40;;;27.50;40.22
76815;BME280;65768;49.906;19.384;2023-07-31T10:15:04;97968.42;;;27.21;38.84
76815;BME280;65768;49.906;19.384;2023-07-31T10:17:35;97969.00;;;27.18;39.04
76815;BME280;65768;49.906;19.384;2023-07-31T10:20:07;97960.93;;;26.64;40.03
76815;BME280;65768;49.906;19.384;2023-07-31T10:22:37;97961.93;;;26.36;41.38
76815;BME280;65768;49.906;19.384;2023-07-31T10:25:08;97960.96;;;27.30;38.46
76815;BME280;65768;49.906;19.384;2023-07-31T10:27:41;97955.31;;;27.66;39.84
76815;BME280;65768;49.906;19.384;2023-07-31T10:30:17;97959.15;;;27.58;38.76
76815;BME280;65768;49.906;19.384;2023-07-31T10:32:51;97951.58;;;27.81;37.79
76815;BME280;65768;49.906;19.384;2023-07-31T10:35:20;97945.83;;;28.41;37.27
76815;BME280;65768;49.906;19.384;2023-07-31T10:37:51;97948.07;;;28.01;37.90
76815;BME280;65768;49.906;19.384;2023-07-31T10:40:25;97953.15;;;27.26;39.31
76815;BME280;65768;49.906;19.384;2023-07-31T10:42:57;97949.48;;;27.51;38.41
76815;BME280;65768;49.906;19.384;2023-07-31T10:48:12;97943.74;;;27.08;37.92
76815;BME280;65768;49.906;19.384;2023-07-31T10:50:56;97944.90;;;26.89;37.54
76815;BME280;65768;49.906;19.384;2023-07-31T10:53:28;97942.53;;;27.27;38.74
76815;BME280;65768;49.906;19.384;2023-07-31T10:56:08;97938.09;;;26.84;38.87
76815;BME280;65768;49.906;19.384;2023-07-31T10:58:39;97933.14;;;26.75;39.46
76815;BME280;65768;49.906;19.384;2023-07-31T11:01:12;97928.52;;;25.88;39.15
76815;BME280;65768;49.906;19.384;2023-07-31T11:03:46;97935.63;;;25.08;41.15
76815;BME280;65768;49.906;19.384;2023-07-31T11:06:16;97940.34;;;25.35;41.60
76815;BME280;65768;49.906;19.384;2023-07-31T11:08:49;97938.09;;;25.86;41.52
76815;BME280;65768;49.906;19.384;2023-07-31T11:11:19;97935.79;;;26.76;40.27
76815;BME280;65768;49.906;19.384;2023-07-31T11:13:50;97932.14;;;26.90;37.95
76815;BME280;65768;49.906;19.384;2023-07-31T11:16:24;97928.57;;;27.02;38.79
76815;BME280;65768;49.906;19.384;2023-07-31T11:18:53;97923.42;;;27.24;37.64
76815;BME280;65768;49.906;19.384;2023-07-31T11:21:25;97923.59;;;26.99;36.94
76815;BME280;65768;49.906;19.384;2023-07-31T11:23:57;97922.22;;;27.44;36.75
76815;BME280;65768;49.906;19.384;2023-07-31T11:26:27;97915.89;;;27.47;35.51
76815;BME280;65768;49.906;19.384;2023-07-31T11:28:56;97919.62;;;26.87;34.88
76815;BME280;65768;49.906;19.384;2023-07-31T11:31:25;97911.48;;;27.11;35.50
76815;BME280;65768;49.906;19.384;2023-07-31T11:34:05;97916.21;;;27.20;35.28
76815;BME280;65768;49.906;19.384;2023-07-31T11:36:34;97911.20;;;26.59;35.02
76815;BME280;65768;49.906;19.384;2023-07-31T11:39:09;97907.48;;;27.69;34.52
76815;BME280;65768;49.906;19.384;2023-07-31T11:41:43;97901.41;;;28.21;34.08
76815;BME280;65768;49.906;19.384;2023-07-31T11:44:12;97909.89;;;27.77;34.71
76815;BME280;65768;49.906;19.384;2023-07-31T11:46:43;97905.14;;;27.17;33.68
76815;BME280;65768;49.906;19.384;2023-07-31T11:49:13;97908.20;;;27.64;35.90
76815;BME280;65768;49.906;19.384;2023-07-31T11:51:47;97908.92;;;27.90;35.13
76815;BME280;65768;49.906;19.384;2023-07-31T11:54:16;97910.84;;;27.47;35.36
76815;BME280;65768;49.906;19.384;2023-07-31T11:56:46;97914.99;;;27.47;34.36
76815;BME280;65768;49.906;19.384;2023-07-31T11:59:16;97910.66;;;27.35;34.95
76815;BME280;65768;49.906;19.384;2023-07-31T12:01:46;97906.86;;;27.10;33.94
76815;BME280;65768;49.906;19.384;2023-07-31T12:04:18;97901.20;;;26.59;34.90
76815;BME280;65768;49.906;19.384;2023-07-31T12:06:48;97898.48;;;26.31;34.23
76815;BME280;65768;49.906;19.384;2023-07-31T12:09:19;97899.14;;;27.06;34.91
76815;BME280;65768;49.906;19.384;2023-07-31T12:11:52;97897.48;;;27.39;32.43
76815;BME280;65768;49.906;19.384;2023-07-31T12:14:25;97896.20;;;27.37;32.47
76815;BME280;65768;49.906;19.384;2023-07-31T12:16:59;97893.09;;;26.88;33.43
76815;BME280;65768;49.906;19.384;2023-07-31T12:19:29;97887.12;;;27.19;33.76
76815;BME280;65768;49.906;19.384;2023-07-31T12:21:59;97881.52;;;27.25;33.62
76815;BME280;65768;49.906;19.384;2023-07-31T12:24:29;97873.23;;;27.81;31.69
76815;BME280;65768;49.906;19.384;2023-07-31T12:26:58;97875.14;;;28.04;33.93
76815;BME280;65768;49.906;19.384;2023-07-31T12:29:36;97870.23;;;27.85;33.36
76815;BME280;65768;49.906;19.384;2023-07-31T12:32:21;97871.41;;;27.55;33.37
76815;BME280;65768;49.906;19.384;2023-07-31T12:34:51;97870.37;;;27.81;33.13
76815;BME280;65768;49.906;19.384;2023-07-31T12:37:21;97862.45;;;27.77;33.07
76815;BME280;65768;49.906;19.384;2023-07-31T12:39:51;97857.29;;;28.33;32.00
76815;BME280;65768;49.906;19.384;2023-07-31T12:42:19;97855.20;;;28.30;32.61
76815;BME280;65768;49.906;19.384;2023-07-31T12:44:48;97846.84;;;28.03;32.38
76815;BME280;65768;49.906;19.384;2023-07-31T12:47:17;97854.45;;;27.61;32.51
76815;BME280;65768;49.906;19.384;2023-07-31T12:49:46;97848.90;;;27.03;33.37
76815;BME280;65768;49.906;19.384;2023-07-31T12:52:14;97841.86;;;27.02;33.52
76815;BME280;65768;49.906;19.384;2023-07-31T12:54:43;97851.48;;;27.50;33.77
76815;BME280;65768;49.906;19.384;2023-07-31T12:57:12;97845.08;;;28.36;31.58
76815;BME280;65768;49.906;19.384;2023-07-31T12:59:40;97846.77;;;27.90;31.65
76815;BME280;65768;49.906;19.384;2023-07-31T13:02:09;97847.14;;;26.98;32.50
76815;BME280;65768;49.906;19.384;2023-07-31T13:04:38;97839.88;;;27.84;33.22
76815;BME280;65768;49.906;19.384;2023-07-31T13:07:06;97832.23;;;27.69;33.11
76815;BME280;65768;49.906;19.384;2023-07-31T13:09:35;97837.89;;;26.97;34.78
76815;BME280;65768;49.906;19.384;2023-07-31T13:12:05;97830.16;;;27.82;32.96
76815;BME280;65768;49.906;19.384;2023-07-31T13:14:33;97827.77;;;28.64;32.31
76815;BME280;65768;49.906;19.384;2023-07-31T13:17:02;97828.46;;;29.02;30.83